createdAt,value
2022-11-01T10:03:55.647Z,10.60
2022-11-01T10:07:07.495Z,12.30
2022-11-01T10:10:52.479Z,13.00
2022-11-01T10:14:19.636Z,11.30
2022-11-01T10:17:52.136Z,12.10
2022-11-01T10:20:57.960Z,9.40
2022-11-01T10:24:08.034Z,10.90
2022-11-01T10:27:14.084Z,10.50
2022-11-01T10:30:18.209Z,10.30
2022-11-01T10:33:30.840Z,12.10
2022-11-01T10:40:11.405Z,10.40
2022-11-01T10:43:17.029Z,13.80
2022-11-01T10:46:24.800Z,13.10
2022-11-01T10:53:03.154Z,14.00
2022-11-01T10:56:12.429Z,12.30
2022-11-01T10:59:22.842Z,11.00
2022-11-01T11:02:33.996Z,13.00
2022-11-01T11:05:37.310Z,9.70
2022-11-01T11:08:43.854Z,13.20
2022-11-01T11:11:49.113Z,12.00
2022-11-01T11:15:04.822Z,11.60
2022-11-01T11:18:17.511Z,10.40
2022-11-01T11:21:24.337Z,18.80
2022-11-01T11:24:37.715Z,11.00
2022-11-01T11:27:48.578Z,12.00
2022-11-01T11:30:52.099Z,11.60
2022-11-01T11:33:59.225Z,10.20
2022-11-01T11:37:05.145Z,10.50
2022-11-01T11:40:43.203Z,14.00
2022-11-01T11:43:46.147Z,11.70
2022-11-01T11:46:58.417Z,12.70
2022-11-01T11:50:23.785Z,11.40
2022-11-01T11:53:29.275Z,10.70
2022-11-01T11:56:32.619Z,10.30
2022-11-01T11:59:35.852Z,11.90
2022-11-01T12:02:42.053Z,12.10
2022-11-01T12:05:57.720Z,11.10
2022-11-01T12:09:00.838Z,14.40
2022-11-01T12:12:28.667Z,12.30
2022-11-01T12:15:41.117Z,10.80
2022-11-01T12:18:48.386Z,11.20
2022-11-01T12:21:51.750Z,11.90
2022-11-01T12:24:58.415Z,10.40
2022-11-01T12:28:06.834Z,13.40
2022-11-01T12:31:19.688Z,12.50
2022-11-01T12:34:31.106Z,15.30
2022-11-01T12:37:51.971Z,15.40
2022-11-01T12:40:59.352Z,11.00
2022-11-01T12:44:39.316Z,11.70
2022-11-01T12:47:48.444Z,13.80
2022-11-01T12:51:48.637Z,11.70
2022-11-01T12:55:06.715Z,13.00
2022-11-01T12:58:16.022Z,11.10
2022-11-01T13:01:40.090Z,10.60
2022-11-01T13:05:10.141Z,12.40
2022-11-01T13:08:45.421Z,10.40
2022-11-01T13:12:20.921Z,12.90
2022-11-01T13:16:01.454Z,9.80
2022-11-01T13:19:13.842Z,10.90
2022-11-01T13:25:36.350Z,9.90
2022-11-01T13:29:00.383Z,9.50
2022-11-01T13:32:21.962Z,12.10
2022-11-01T13:35:33.962Z,12.00
2022-11-01T13:39:14.735Z,9.50
2022-11-01T13:42:30.452Z,10.10
2022-11-01T13:45:48.688Z,12.70
2022-11-01T13:49:09.909Z,10.30
2022-11-01T13:52:21.082Z,11.80
2022-11-01T13:55:58.934Z,11.60
2022-11-01T13:59:03.436Z,11.30
2022-11-01T14:02:28.241Z,9.30
2022-11-01T14:05:39.374Z,11.40
2022-11-01T14:08:52.092Z,11.70
2022-11-01T14:12:07.998Z,10.30
2022-11-01T14:15:17.914Z,8.60
2022-11-01T14:18:24.442Z,10.50
2022-11-01T14:21:40.356Z,9.00
2022-11-01T14:25:00.150Z,9.80
2022-11-01T14:28:18.426Z,11.00
2022-11-01T14:31:25.223Z,10.30
2022-11-01T14:34:35.818Z,9.80
2022-11-01T14:37:43.897Z,9.30
2022-11-01T14:40:52.481Z,11.00
2022-11-01T14:47:26.497Z,12.00
2022-11-01T14:50:40.382Z,15.90
2022-11-01T14:53:46.462Z,13.80
2022-11-01T14:56:52.527Z,14.20
2022-11-01T14:59:56.977Z,12.70
2022-11-01T15:03:02.551Z,13.20
2022-11-01T15:06:22.679Z,13.70
2022-11-01T15:09:31.280Z,11.70
2022-11-01T15:12:46.605Z,15.10
2022-11-01T15:16:24.123Z,14.70
2022-11-01T15:19:34.086Z,17.10
2022-11-01T15:22:37.177Z,14.20
2022-11-01T15:25:40.920Z,15.60
2022-11-01T15:28:52.682Z,13.30
2022-11-01T15:32:01.212Z,12.70
2022-11-01T15:35:20.747Z,15.30
2022-11-01T15:38:23.706Z,12.50
2022-11-01T15:41:30.125Z,12.40
2022-11-01T15:44:33.119Z,11.70
2022-11-01T15:47:45.394Z,11.80
2022-11-01T15:50:51.922Z,12.30
2022-11-01T15:54:01.412Z,12.60
2022-11-01T15:57:16.188Z,12.80
2022-11-01T16:00:22.479Z,12.90
2022-11-01T16:03:35.527Z,16.30
2022-11-01T16:06:57.482Z,19.50
2022-11-01T16:10:03.693Z,15.10
2022-11-01T16:13:06.813Z,14.70
2022-11-01T16:16:10.752Z,16.80
2022-11-01T16:19:45.124Z,16.30
2022-11-01T16:22:48.021Z,16.00
2022-11-01T16:26:10.105Z,17.90
2022-11-01T16:29:14.701Z,19.90
2022-11-01T16:32:30.725Z,20.30
2022-11-01T16:35:36.213Z,20.20
2022-11-01T16:38:44.147Z,26.40
2022-11-01T16:41:47.888Z,25.00
2022-11-01T16:44:56.206Z,27.70
2022-11-01T16:47:59.087Z,27.40
2022-11-01T16:51:03.738Z,28.20
2022-11-01T16:54:15.735Z,30.80
2022-11-01T16:57:27.923Z,26.90
2022-11-01T17:00:31.651Z,24.10
2022-11-01T17:03:34.580Z,25.20
2022-11-01T17:06:39.173Z,26.90
2022-11-01T17:09:43.269Z,24.30
2022-11-01T17:12:47.204Z,26.30
2022-11-01T17:15:51.550Z,26.40
2022-11-01T17:18:57.786Z,27.40
2022-11-01T17:22:06.670Z,26.60
2022-11-01T17:25:17.107Z,28.50
2022-11-01T17:28:21.651Z,25.90
2022-11-01T17:31:25.185Z,27.50
2022-11-01T17:34:28.943Z,25.80
2022-11-01T17:37:35.619Z,24.20
2022-11-01T17:40:38.771Z,29.60
2022-11-01T17:43:41.697Z,27.90
2022-11-01T17:46:44.779Z,30.30
2022-11-01T17:49:47.661Z,30.30
2022-11-01T17:52:50.597Z,25.40
2022-11-01T17:55:59.950Z,27.10
2022-11-01T17:59:02.953Z,24.30
2022-11-01T18:02:06.020Z,24.20
2022-11-01T18:05:09.478Z,24.20
2022-11-01T18:08:19.994Z,26.00
2022-11-01T18:11:31.856Z,21.40
2022-11-01T18:15:16.986Z,22.70
2022-11-01T18:18:32.246Z,21.40
2022-11-01T18:22:14.328Z,21.70
2022-11-01T18:25:20.886Z,22.30
2022-11-01T18:28:26.533Z,23.50
2022-11-01T18:31:36.970Z,23.30
2022-11-01T18:35:00.293Z,22.20
2022-11-01T18:38:12.916Z,22.40
2022-11-01T18:41:20.214Z,21.30
2022-11-01T18:44:24.270Z,20.80
2022-11-01T18:47:34.853Z,22.60
2022-11-01T18:50:38.603Z,20.10
2022-11-01T18:53:41.656Z,21.20
2022-11-01T18:56:50.744Z,22.40
2022-11-01T18:59:54.941Z,21.20
2022-11-01T19:03:00.640Z,20.20
2022-11-01T19:06:22.319Z,23.40
2022-11-01T19:09:29.919Z,21.00
2022-11-01T19:12:39.448Z,23.10
2022-11-01T19:15:42.275Z,28.00
2022-11-01T19:18:47.009Z,27.30
2022-11-01T19:21:49.861Z,27.60
2022-11-01T19:24:52.791Z,24.60
2022-11-01T19:27:59.130Z,24.30
2022-11-01T19:31:15.100Z,22.90
2022-11-01T19:34:32.131Z,22.00
2022-11-01T19:37:37.490Z,20.20
2022-11-01T19:40:41.492Z,22.30
2022-11-01T19:43:44.602Z,22.90
2022-11-01T19:46:48.314Z,22.00
2022-11-01T19:49:51.138Z,23.10
2022-11-01T19:52:57.297Z,23.40
2022-11-01T19:56:03.431Z,22.20
2022-11-01T19:59:12.857Z,24.40
2022-11-01T20:02:21.668Z,23.10
2022-11-01T20:05:33.148Z,25.60
2022-11-01T20:08:36.109Z,21.70
2022-11-01T20:11:38.977Z,22.60
2022-11-01T20:14:41.951Z,22.70
2022-11-01T20:20:54.017Z,25.30
2022-11-01T20:23:57.428Z,26.60
2022-11-01T20:27:00.824Z,25.10
2022-11-01T20:30:03.967Z,23.90
2022-11-01T20:33:07.108Z,24.80
2022-11-01T20:36:11.486Z,24.90
2022-11-01T20:39:15.834Z,26.90
2022-11-01T20:42:20.560Z,26.70
2022-11-01T20:45:23.794Z,26.60
2022-11-01T20:48:27.251Z,26.90
2022-11-01T20:51:30.451Z,25.20
2022-11-01T20:54:35.320Z,25.90
2022-11-01T20:57:38.971Z,26.30
2022-11-01T21:00:42.148Z,26.20
2022-11-01T21:03:45.867Z,23.30
2022-11-01T21:06:48.831Z,25.50
2022-11-01T21:09:52.843Z,25.60
2022-11-01T21:12:57.356Z,24.20
2022-11-01T21:16:02.217Z,25.50
2022-11-01T21:19:13.913Z,23.60
2022-11-01T21:22:21.191Z,22.70
2022-11-01T21:25:24.235Z,22.70
2022-11-01T21:28:49.806Z,22.10
2022-11-01T21:31:52.971Z,21.30
2022-11-01T21:35:00.421Z,21.00
2022-11-01T21:38:28.190Z,22.80
2022-11-01T21:41:45.920Z,23.10
2022-11-01T21:44:52.532Z,24.30
2022-11-01T21:47:57.925Z,23.90
2022-11-01T21:51:01.557Z,26.70
2022-11-01T21:54:04.989Z,28.20
2022-11-01T21:57:10.430Z,25.90
2022-11-01T22:00:15.550Z,24.20
2022-11-01T22:03:18.961Z,23.10
2022-11-01T22:06:22.103Z,25.00
2022-11-01T22:09:25.432Z,23.60
2022-11-01T22:12:28.315Z,25.10
2022-11-01T22:15:31.182Z,27.50
2022-11-01T22:18:34.394Z,29.10
2022-11-01T22:21:37.523Z,32.00
2022-11-01T22:24:40.593Z,30.60
2022-11-01T22:27:43.396Z,28.80
2022-11-01T22:30:46.275Z,34.70
2022-11-01T22:33:54.006Z,32.70
2022-11-01T22:36:57.017Z,30.50
2022-11-01T22:39:59.981Z,31.30
2022-11-01T22:43:11.568Z,30.40
2022-11-01T22:46:25.619Z,33.10
2022-11-01T22:49:35.223Z,28.30
2022-11-01T22:52:44.391Z,30.50
2022-11-01T22:55:49.493Z,29.10
2022-11-01T22:58:52.799Z,32.50
2022-11-01T23:02:00.628Z,34.00
2022-11-01T23:05:06.667Z,30.40
2022-11-01T23:08:35.556Z,27.80
2022-11-01T23:11:57.099Z,32.40
2022-11-01T23:14:59.924Z,27.00
2022-11-01T23:18:13.359Z,33.30
2022-11-01T23:21:17.645Z,33.40
2022-11-01T23:24:20.492Z,29.50
2022-11-01T23:27:26.013Z,30.60
2022-11-01T23:30:28.827Z,27.40
2022-11-01T23:33:44.690Z,27.80
2022-11-01T23:36:47.704Z,29.10
2022-11-01T23:39:50.576Z,27.40
2022-11-01T23:42:53.535Z,29.70
2022-11-01T23:45:56.456Z,28.30
2022-11-01T23:49:15.265Z,27.60
2022-11-01T23:52:38.369Z,28.10
2022-11-01T23:55:45.225Z,33.20
2022-11-01T23:58:59.359Z,29.40
